Time;durP1;ratioP1;P1;durP2;ratioP2;P2;SDS_P1;SDS_P2;PMS_P1;PMS_P2;Temp;Humidity;BMP_temperature;BMP_pressure;BME280_temperature;BME280_humidity;BME280_pressure;Samples;Min_cycle;Max_cycle;Signal;HPM_P1;HPM_P2
2021/08/31 00:00:19;;;;;;;0.90;0.85;;;;;;;31.51;24.64;97614.56;5052728;28;20037;-84
2021/08/31 00:02:45;;;;;;;1.10;1.00;;;;;;;31.41;24.53;97616.72;5053445;28;20037;-84
2021/08/31 00:05:13;;;;;;;1.00;0.90;;;;;;;31.40;24.72;97615.94;5052721;28;20029;-84
2021/08/31 00:07:39;;;;;;;1.75;0.85;;;;;;;31.02;25.18;97618.22;5052091;28;20519;-85
2021/08/31 00:10:07;;;;;;;0.90;0.90;;;;;;;31.23;25.17;97611.31;5052401;28;20083;-84
2021/08/31 00:12:34;;;;;;;0.98;0.98;;;;;;;30.69;25.48;97607.13;5034489;28;20539;-84
2021/08/31 00:15:00;;;;;;;0.70;0.63;;;;;;;30.94;25.47;97603.69;5033678;28;20036;-84
2021/08/31 00:17:26;;;;;;;1.08;0.80;;;;;;;30.36;25.91;97595.22;5051984;28;20104;-84
2021/08/31 00:19:52;;;;;;;0.70;0.70;;;;;;;30.82;25.68;97606.78;5050348;28;20044;-84
2021/08/31 00:22:18;;;;;;;0.95;0.60;;;;;;;31.24;24.82;97605.16;5048219;28;20040;-84
2021/08/31 00:24:44;;;;;;;1.92;0.90;;;;;;;31.20;24.58;97606.63;5051477;28;20049;-84
2021/08/31 00:27:11;;;;;;;0.60;0.60;;;;;;;31.30;24.51;97605.22;5051956;28;20148;-84
2021/08/31 00:29:37;;;;;;;0.93;0.80;;;;;;;31.07;25.13;97603.34;5051004;28;20394;-84
2021/08/31 00:32:03;;;;;;;1.10;0.70;;;;;;;31.30;24.94;97608.03;5052166;28;20032;-84
2021/08/31 00:34:29;;;;;;;2.13;0.98;;;;;;;31.41;24.77;97603.31;5051405;28;20043;-84
2021/08/31 00:36:55;;;;;;;1.55;1.20;;;;;;;30.62;25.12;97605.44;5051940;28;20032;-85
2021/08/31 00:39:21;;;;;;;0.80;0.80;;;;;;;30.36;25.77;97604.50;5050382;28;20060;-84
2021/08/31 00:41:48;;;;;;;0.82;0.80;;;;;;;30.88;25.45;97593.50;5051819;28;20040;-84
2021/08/31 00:44:22;;;;;;;1.52;1.10;;;;;;;30.36;25.86;97601.66;5051501;28;20059;-84
2021/08/31 00:46:55;;;;;;;1.10;0.80;;;;;;;30.56;26.19;97592.47;5047487;28;20037;-84
2021/08/31 00:49:25;;;;;;;1.23;0.90;;;;;;;30.20;26.13;97604.16;5050812;28;20111;-84
2021/08/31 00:51:52;;;;;;;1.10;1.00;;;;;;;29.80;26.94;97616.03;5041887;28;20029;-84
2021/08/31 00:54:19;;;;;;;1.50;0.95;;;;;;;29.52;27.23;97615.41;5051517;28;20029;-84
2021/08/31 00:56:46;;;;;;;1.50;1.20;;;;;;;29.69;27.33;97612.91;5051071;28;20397;-83
2021/08/31 00:59:13;;;;;;;0.90;0.90;;;;;;;29.92;27.11;97604.41;5051680;28;20064;-83
2021/08/31 01:01:39;;;;;;;1.20;0.82;;;;;;;30.39;26.60;97609.16;5049033;28;20425;-83
2021/08/31 01:04:05;;;;;;;0.88;0.82;;;;;;;30.51;26.43;97610.16;5051735;28;20095;-83
2021/08/31 01:06:32;;;;;;;2.85;0.82;;;;;;;30.47;26.23;97618.84;5051253;28;20058;-83
2021/08/31 01:08:59;;;;;;;0.82;0.80;;;;;;;30.09;26.72;97619.69;5033714;28;20381;-83
2021/08/31 01:11:26;;;;;;;0.95;0.73;;;;;;;30.12;27.12;97620.75;5050297;28;20033;-83
2021/08/31 01:13:52;;;;;;;0.70;0.70;;;;;;;30.30;26.71;97620.56;5050432;28;20086;-83
2021/08/31 01:16:18;;;;;;;1.10;0.85;;;;;;;30.30;26.59;97623.41;5026495;28;20412;-83
2021/08/31 01:18:44;;;;;;;0.73;0.70;;;;;;;30.21;26.99;97620.66;5050726;28;20056;-83
2021/08/31 01:21:11;;;;;;;1.10;0.80;;;;;;;30.41;26.83;97620.03;5043324;28;20459;-83
2021/08/31 01:23:38;;;;;;;2.33;0.60;;;;;;;30.87;26.25;97617.44;5032069;28;20100;-84
2021/08/31 01:26:04;;;;;;;0.60;0.60;;;;;;;31.24;25.81;97613.66;5051485;28;20029;-83
2021/08/31 01:28:33;;;;;;;0.65;0.65;;;;;;;31.52;25.49;97610.44;5054996;28;20079;-84
2021/08/31 01:31:00;;;;;;;1.08;0.50;;;;;;;31.24;25.72;97610.81;5054409;28;20542;-83
2021/08/31 01:33:30;;;;;;;0.60;0.60;;;;;;;31.32;25.58;97611.94;5048051;28;20384;-83
2021/08/31 01:35:56;;;;;;;0.70;0.70;;;;;;;31.10;26.07;97613.69;5050877;28;20437;-83
2021/08/31 01:38:22;;;;;;;0.70;0.70;;;;;;;31.21;26.06;97614.63;5054999;28;20037;-83
2021/08/31 01:40:48;;;;;;;0.80;0.80;;;;;;;31.26;25.79;97610.31;5051353;28;20041;-83
2021/08/31 01:43:26;;;;;;;0.70;0.70;;;;;;;30.46;26.79;97620.13;5031868;28;20037;-82
2021/08/31 01:45:53;;;;;;;1.08;0.95;;;;;;;30.18;27.50;97620.88;5054370;28;20104;-82
2021/08/31 01:48:20;;;;;;;0.60;0.60;;;;;;;29.94;27.91;97610.38;5054003;28;20553;-82
2021/08/31 01:50:46;;;;;;;0.90;0.82;;;;;;;29.20;28.99;97614.19;5055189;28;20100;-83
2021/08/31 01:53:12;;;;;;;1.00;0.80;;;;;;;29.75;27.97;97611.00;5053451;28;20029;-83
2021/08/31 01:55:38;;;;;;;0.63;0.63;;;;;;;29.97;27.95;97608.63;5055029;28;20142;-83
2021/08/31 01:58:05;;;;;;;0.60;0.60;;;;;;;30.38;27.14;97604.78;5054823;28;20035;-83
2021/08/31 02:00:31;;;;;;;1.25;0.60;;;;;;;30.83;26.84;97611.97;5030036;28;21991;-83
2021/08/31 02:02:58;;;;;;;0.43;0.43;;;;;;;31.14;26.32;97609.38;5053865;28;20506;-83
2021/08/31 02:05:25;;;;;;;0.50;0.50;;;;;;;31.37;25.98;97604.78;5053839;28;20040;-83
2021/08/31 02:07:51;;;;;;;0.60;0.60;;;;;;;31.41;25.69;97596.88;5054053;28;20489;-83
2021/08/31 02:10:18;;;;;;;0.70;0.70;;;;;;;31.46;25.82;97596.16;5051721;28;20058;-83
2021/08/31 02:12:44;;;;;;;0.60;0.60;;;;;;;31.07;26.36;97603.34;5053288;28;20032;-83
2021/08/31 02:15:11;;;;;;;0.40;0.40;;;;;;;31.15;26.32;97596.78;5036152;28;20041;-83
2021/08/31 02:17:37;;;;;;;0.50;0.50;;;;;;;30.78;26.65;97596.44;5032129;28;20423;-83
2021/08/31 02:20:04;;;;;;;0.70;0.60;;;;;;;30.73;26.78;97597.16;5053850;28;20108;-83
2021/08/31 02:22:31;;;;;;;0.50;0.50;;;;;;;31.05;26.70;97588.88;5053368;28;20029;-83
2021/08/31 02:24:57;;;;;;;0.68;0.55;;;;;;;31.06;26.43;97590.44;5050541;28;20037;-83
2021/08/31 02:27:23;;;;;;;1.83;0.70;;;;;;;30.96;26.47;97597.50;5034012;28;20038;-84
2021/08/31 02:29:49;;;;;;;0.75;0.75;;;;;;;30.71;26.78;97596.06;5053031;28;20536;-83
2021/08/31 02:32:15;;;;;;;0.60;0.60;;;;;;;30.66;26.78;97596.75;5053254;28;20025;-83
2021/08/31 02:34:41;;;;;;;0.88;0.82;;;;;;;30.65;27.11;97589.50;5052025;28;20029;-83
2021/08/31 02:37:07;;;;;;;0.60;0.52;;;;;;;30.98;26.58;97583.59;5048524;28;20044;-83
2021/08/31 02:39:34;;;;;;;0.80;0.80;;;;;;;31.00;26.42;97581.84;5048847;28;20508;-83
2021/08/31 02:42:00;;;;;;;0.60;0.60;;;;;;;31.40;25.76;97576.22;5053100;28;20083;-83
2021/08/31 02:44:26;;;;;;;3.70;0.50;;;;;;;31.54;25.81;97568.94;5051936;28;20036;-83
2021/08/31 02:46:52;;;;;;;0.80;0.80;;;;;;;31.44;25.76;97578.09;5034427;28;20330;-84
2021/08/31 02:49:19;;;;;;;0.75;0.75;;;;;;;31.51;25.58;97574.84;5053845;28;20044;-83
2021/08/31 02:51:45;;;;;;;0.75;0.75;;;;;;;31.60;25.56;97572.59;5052792;28;20029;-84
2021/08/31 02:54:11;;;;;;;1.10;0.80;;;;;;;31.33;25.81;97564.50;5052243;28;20127;-84
2021/08/31 02:56:37;;;;;;;0.70;0.70;;;;;;;31.28;26.23;97557.50;5053103;28;20048;-83
2021/08/31 02:59:03;;;;;;;0.80;0.80;;;;;;;31.19;26.06;97566.13;5053219;28;20033;-83
2021/08/31 03:03:56;;;;;;;0.57;0.57;;;;;;;30.91;26.61;97561.34;5050431;28;20086;-84
2021/08/31 03:06:22;;;;;;;0.75;0.75;;;;;;;31.11;26.49;97564.22;5053654;28;20467;-84
2021/08/31 03:08:48;;;;;;;0.60;0.60;;;;;;;31.02;26.40;97555.81;5052341;28;20420;-84
2021/08/31 03:11:14;;;;;;;1.05;0.90;;;;;;;30.82;26.65;97561.44;5052739;28;20029;-84
2021/08/31 03:13:40;;;;;;;1.02;0.93;;;;;;;30.60;27.00;97562.66;5053531;28;20062;-84
2021/08/31 03:16:06;;;;;;;0.88;0.80;;;;;;;30.49;27.18;97556.81;5051200;28;20061;-84
2021/08/31 03:18:32;;;;;;;1.05;1.00;;;;;;;30.27;27.55;97558.47;5052741;28;20040;-84
2021/08/31 03:20:59;;;;;;;0.90;0.90;;;;;;;30.29;27.45;97562.38;5052949;28;20037;-84
2021/08/31 03:23:25;;;;;;;0.70;0.70;;;;;;;30.16;27.81;97550.53;5051157;28;20029;-84
2021/08/31 03:25:51;;;;;;;1.33;0.90;;;;;;;30.54;27.08;97558.16;5053103;28;20059;-83
2021/08/31 03:28:17;;;;;;;0.68;0.68;;;;;;;31.05;26.56;97554.84;5052310;28;20026;-84
2021/08/31 03:30:43;;;;;;;1.23;1.13;;;;;;;30.73;26.96;97551.78;5052973;28;20074;-84
2021/08/31 03:33:09;;;;;;;0.80;0.80;;;;;;;31.02;26.37;97552.97;5051971;28;20477;-84
2021/08/31 03:35:35;;;;;;;1.42;0.75;;;;;;;31.01;26.58;97555.06;5052251;28;20124;-83
2021/08/31 03:38:01;;;;;;;1.27;1.17;;;;;;;30.51;27.08;97551.44;5052542;28;20481;-84
2021/08/31 03:40:27;;;;;;;0.65;0.65;;;;;;;30.63;27.09;97547.50;5053115;28;20131;-84
2021/08/31 03:42:54;;;;;;;1.10;1.05;;;;;;;30.61;27.05;97538.72;5052859;28;20060;-84
2021/08/31 03:45:20;;;;;;;0.95;0.93;;;;;;;30.73;26.85;97542.50;5052492;28;20040;-84
2021/08/31 03:47:46;;;;;;;1.27;0.95;;;;;;;30.64;27.27;97545.47;5051788;28;20405;-84
2021/08/31 03:50:12;;;;;;;0.90;0.90;;;;;;;30.52;27.37;97544.50;5052432;28;20061;-84
2021/08/31 03:52:38;;;;;;;1.20;1.10;;;;;;;30.34;27.32;97553.19;5052558;28;20029;-84
2021/08/31 03:55:05;;;;;;;0.85;0.85;;;;;;;30.27;27.74;97541.47;5051043;28;20029;-84
2021/08/31 03:57:31;;;;;;;1.20;1.10;;;;;;;30.15;27.67;97531.22;5052424;28;20032;-84
2021/08/31 03:59:57;;;;;;;1.13;1.02;;;;;;;29.94;28.15;97536.00;5051134;28;20037;-84
2021/08/31 04:02:23;;;;;;;0.90;0.90;;;;;;;30.12;28.00;97541.47;5052392;28;20033;-84
2021/08/31 04:04:49;;;;;;;1.75;0.90;;;;;;;29.98;28.13;97543.03;5034833;28;20032;-84
2021/08/31 04:07:16;;;;;;;0.82;0.82;;;;;;;30.20;27.75;97536.19;5052279;28;20037;-84
2021/08/31 04:09:42;;;;;;;1.30;1.20;;;;;;;30.27;27.70;97539.41;5052640;28;20029;-84
2021/08/31 04:12:09;;;;;;;2.25;1.00;;;;;;;30.13;27.76;97539.44;5052579;28;20033;-84
2021/08/31 04:14:35;;;;;;;0.77;0.77;;;;;;;30.42;27.61;97536.59;5053254;28;20090;-84
2021/08/31 04:17:01;;;;;;;1.10;0.98;;;;;;;30.41;27.61;97540.72;5052720;28;20039;-84
2021/08/31 04:19:27;;;;;;;0.93;0.93;;;;;;;30.43;27.43;97550.28;5051989;28;20039;-84
2021/08/31 04:21:53;;;;;;;1.90;0.88;;;;;;;30.63;27.23;97553.16;5051198;28;20029;-84
2021/08/31 04:24:20;;;;;;;1.00;1.00;;;;;;;30.41;27.46;97540.72;5052426;28;20029;-84
2021/08/31 04:26:46;;;;;;;1.20;1.10;;;;;;;30.04;28.22;97546.72;5051925;28;20109;-84
2021/08/31 04:29:12;;;;;;;1.20;1.10;;;;;;;30.27;27.80;97536.56;5053039;28;20033;-84
2021/08/31 04:31:38;;;;;;;0.70;0.70;;;;;;;30.49;27.63;97547.53;5052878;28;20040;-84
2021/08/31 04:34:04;;;;;;;1.80;1.10;;;;;;;30.85;26.79;97534.94;5051994;28;20029;-84
2021/08/31 04:36:30;;;;;;;2.50;1.83;;;;;;;30.64;27.29;97551.88;5048925;28;20037;-84
2021/08/31 04:38:56;;;;;;;1.50;1.40;;;;;;;30.40;27.79;97548.41;5042975;28;20030;-84
2021/08/31 04:41:22;;;;;;;1.23;1.13;;;;;;;30.39;27.80;97544.00;5037052;28;20072;-84
2021/08/31 04:43:48;;;;;;;2.60;1.30;;;;;;;30.89;27.17;97542.00;5046039;28;20030;-84
2021/08/31 04:46:14;;;;;;;3.63;1.50;;;;;;;30.86;26.90;97542.16;5051248;28;20047;-83
2021/08/31 04:48:40;;;;;;;3.28;1.42;;;;;;;31.06;26.96;97539.41;5048985;28;20072;-84
2021/08/31 04:51:06;;;;;;;1.70;1.60;;;;;;;31.33;26.48;97544.66;5055234;28;20057;-83
2021/08/31 04:53:33;;;;;;;4.32;3.38;;;;;;;31.43;25.99;97540.44;5050553;28;20044;-84
2021/08/31 04:55:59;;;;;;;10.27;7.72;;;;;;;31.22;26.68;97545.31;5050198;28;20041;-84
2021/08/31 04:58:25;;;;;;;6.60;4.25;;;;;;;31.65;25.96;97542.75;5049777;28;20121;-84
2021/08/31 05:00:51;;;;;;;5.10;3.28;;;;;;;31.59;26.03;97542.69;5051677;28;20051;-84
2021/08/31 05:03:17;;;;;;;2.55;1.63;;;;;;;30.97;26.66;97548.78;5049616;28;20037;-84
2021/08/31 05:05:43;;;;;;;2.28;1.58;;;;;;;30.62;27.41;97533.84;5051653;28;20024;-84
2021/08/31 05:08:09;;;;;;;1.40;1.15;;;;;;;30.90;27.10;97539.94;5061136;28;20045;-85
2021/08/31 05:10:36;;;;;;;2.25;1.38;;;;;;;30.34;28.01;97549.59;5034977;28;20045;-85
2021/08/31 05:13:02;;;;;;;1.20;1.10;;;;;;;30.96;27.15;97543.63;5038535;28;20374;-85
2021/08/31 05:15:28;;;;;;;0.85;0.85;;;;;;;31.41;26.55;97538.03;5031266;28;20080;-85
2021/08/31 05:17:55;;;;;;;3.92;1.90;;;;;;;31.46;26.50;97535.81;5031426;28;20518;-85
2021/08/31 05:20:22;;;;;;;3.20;1.70;;;;;;;31.70;26.21;97542.81;5030766;28;20029;-85
2021/08/31 05:22:50;;;;;;;2.65;1.60;;;;;;;32.06;25.79;97530.84;5029876;28;20029;-85
2021/08/31 05:25:17;;;;;;;2.35;1.67;;;;;;;31.83;26.09;97533.91;5027923;28;20029;-85
2021/08/31 05:27:43;;;;;;;2.20;1.60;;;;;;;31.70;26.50;97533.50;5031764;28;20034;-85
2021/08/31 05:30:10;;;;;;;1.83;1.45;;;;;;;31.32;26.99;97538.19;5029699;28;20040;-85
2021/08/31 05:32:36;;;;;;;1.30;1.20;;;;;;;30.88;27.69;97539.63;5032351;28;20030;-85
2021/08/31 05:35:02;;;;;;;2.90;1.48;;;;;;;31.02;27.30;97539.59;5025012;28;20135;-85
2021/08/31 05:37:28;;;;;;;1.50;1.40;;;;;;;31.38;27.16;97532.59;5026412;28;20859;-86
2021/08/31 05:39:54;;;;;;;4.88;3.28;;;;;;;31.45;26.60;97537.88;5026108;28;20549;-84
2021/08/31 05:42:20;;;;;;;4.13;1.73;;;;;;;31.51;26.83;97530.19;5026902;28;20126;-84
2021/08/31 05:44:46;;;;;;;3.03;1.50;;;;;;;31.52;26.87;97530.97;5029761;28;20401;-85
2021/08/31 05:47:12;;;;;;;3.58;1.52;;;;;;;31.73;26.35;97524.78;5030267;28;20087;-86
2021/08/31 05:49:40;;;;;;;2.15;1.20;;;;;;;31.63;26.74;97529.03;5030593;28;20037;-85
2021/08/31 05:52:06;;;;;;;2.80;1.50;;;;;;;30.74;28.09;97536.31;5031906;28;20022;-85
2021/08/31 05:54:32;;;;;;;1.58;1.05;;;;;;;30.77;28.11;97526.06;5029248;28;20112;-85
2021/08/31 05:57:03;;;;;;;1.95;1.38;;;;;;;30.98;27.65;97530.53;5030601;28;20307;-85
2021/08/31 05:59:30;;;;;;;2.05;1.40;;;;;;;30.85;28.02;97534.94;5030528;28;20033;-85
2021/08/31 06:01:56;;;;;;;1.33;1.20;;;;;;;30.25;28.63;97541.94;5031194;28;20037;-85
2021/08/31 06:04:25;;;;;;;1.20;1.10;;;;;;;30.32;28.52;97527.38;5031946;28;20026;-85
2021/08/31 06:06:51;;;;;;;1.80;1.23;;;;;;;30.68;27.99;97532.66;5030263;28;20030;-85
2021/08/31 06:09:17;;;;;;;2.05;1.45;;;;;;;30.80;27.88;97533.59;5044953;28;20071;-85
2021/08/31 06:11:44;;;;;;;3.38;1.90;;;;;;;31.01;27.84;97538.03;5052483;28;20128;-85
2021/08/31 06:14:10;;;;;;;1.77;1.10;;;;;;;30.57;28.33;97529.63;5048655;28;20479;-85
2021/08/31 06:16:36;;;;;;;2.60;1.50;;;;;;;30.77;28.01;97528.91;5052857;28;20500;-86
2021/08/31 06:19:03;;;;;;;2.63;2.05;;;;;;;30.61;28.40;97530.22;5053731;28;20384;-85
2021/08/31 06:21:30;;;;;;;1.85;1.52;;;;;;;30.06;29.37;97521.53;5054274;28;20571;-85
2021/08/31 06:23:56;;;;;;;1.30;1.20;;;;;;;30.28;29.33;97535.31;5049287;28;20108;-85
2021/08/31 06:26:22;;;;;;;2.90;1.30;;;;;;;30.67;28.50;97530.28;5038905;28;20423;-85
2021/08/31 06:28:49;;;;;;;1.73;1.30;;;;;;;30.91;28.00;97536.59;5051356;28;20508;-85
2021/08/31 06:31:15;;;;;;;0.80;0.80;;;;;;;29.63;29.83;97532.78;5049552;28;20037;-85
2021/08/31 06:33:45;;;;;;;1.20;1.02;;;;;;;29.01;31.03;97539.19;5045904;28;20151;-85
2021/08/31 06:36:12;;;;;;;1.60;1.00;;;;;;;30.20;29.37;97536.97;5045282;28;20047;-85
2021/08/31 06:38:38;;;;;;;1.38;1.05;;;;;;;30.26;28.79;97549.19;5045692;28;20056;-86
2021/08/31 06:41:06;;;;;;;1.25;1.15;;;;;;;30.22;29.29;97544.97;5045890;28;20396;-86
2021/08/31 06:43:32;;;;;;;1.10;1.00;;;;;;;30.36;28.61;97539.34;5044175;28;20060;-85
2021/08/31 06:45:58;;;;;;;1.23;0.90;;;;;;;30.13;29.18;97542.25;5035243;28;20083;-85
2021/08/31 06:48:24;;;;;;;1.08;0.80;;;;;;;30.80;28.42;97547.75;5049898;28;20041;-86
2021/08/31 06:50:50;;;;;;;1.23;1.00;;;;;;;30.88;28.21;97548.94;5053545;28;20477;-85
2021/08/31 06:53:16;;;;;;;1.27;1.17;;;;;;;31.11;27.93;97545.13;5052054;28;20025;-85
2021/08/31 06:55:42;;;;;;;0.82;0.70;;;;;;;31.04;27.97;97548.38;5035126;28;20041;-85
2021/08/31 06:58:09;;;;;;;1.45;1.08;;;;;;;31.27;27.62;97553.06;5051741;28;21778;-85
2021/08/31 07:00:35;;;;;;;1.15;0.73;;;;;;;31.44;27.45;97552.56;5049774;28;20492;-85
2021/08/31 07:03:01;;;;;;;2.80;0.73;;;;;;;31.55;27.32;97549.84;5047111;28;20029;-86
2021/08/31 07:05:27;;;;;;;0.50;0.50;;;;;;;31.15;27.87;97554.22;5051101;28;20045;-86
2021/08/31 07:07:53;;;;;;;0.82;0.70;;;;;;;31.23;27.96;97560.25;5050335;28;20057;-86
2021/08/31 07:10:19;;;;;;;1.35;0.80;;;;;;;31.49;27.42;97558.28;5049700;28;20068;-86
2021/08/31 07:12:45;;;;;;;0.50;0.50;;;;;;;31.51;27.80;97552.91;5031039;28;20025;-86
2021/08/31 07:15:11;;;;;;;1.33;0.93;;;;;;;31.55;27.38;97558.38;5047615;28;20408;-85
2021/08/31 07:17:38;;;;;;;0.77;0.52;;;;;;;31.34;27.57;97554.72;5047603;28;20029;-85
2021/08/31 07:20:05;;;;;;;0.95;0.70;;;;;;;31.26;28.14;97562.09;5049069;28;20056;-85
2021/08/31 07:22:31;;;;;;;1.05;0.52;;;;;;;31.17;28.43;97559.41;5052311;28;20024;-85
2021/08/31 07:24:57;;;;;;;1.05;0.80;;;;;;;31.24;28.02;97562.59;5051312;28;20098;-86
2021/08/31 07:27:23;;;;;;;1.08;0.82;;;;;;;31.22;28.31;97561.53;5048932;28;20554;-86
2021/08/31 07:29:49;;;;;;;0.40;0.40;;;;;;;31.31;28.58;97564.22;5049256;28;20025;-86
2021/08/31 07:32:16;;;;;;;0.63;0.60;;;;;;;31.14;28.20;97563.22;5042343;28;20038;-85
2021/08/31 07:34:42;;;;;;;1.05;0.93;;;;;;;31.27;28.32;97569.34;5047468;28;20051;-86
2021/08/31 07:37:09;;;;;;;0.50;0.50;;;;;;;30.84;28.86;97573.84;5044880;28;20033;-85
2021/08/31 07:39:35;;;;;;;0.68;0.68;;;;;;;30.65;29.21;97569.69;5046655;28;20053;-86
2021/08/31 07:42:02;;;;;;;0.50;0.50;;;;;;;30.92;28.78;97574.25;5042773;28;20025;-86
2021/08/31 07:44:28;;;;;;;1.27;0.40;;;;;;;31.24;28.91;97579.63;5048999;28;20033;-86
2021/08/31 07:46:54;;;;;;;0.60;0.60;;;;;;;30.80;29.29;97570.44;5050154;28;20029;-86
2021/08/31 07:49:20;;;;;;;2.70;0.60;;;;;;;30.97;28.83;97576.41;5048429;28;20197;-85
2021/08/31 07:51:47;;;;;;;0.60;0.60;;;;;;;31.29;28.21;97580.97;5041646;28;20025;-85
2021/08/31 07:54:14;;;;;;;0.98;0.68;;;;;;;30.91;28.90;97581.97;5045420;28;20037;-85
2021/08/31 07:56:41;;;;;;;0.52;0.50;;;;;;;31.26;28.52;97576.28;5053062;28;20033;-85
2021/08/31 07:59:07;;;;;;;2.45;0.88;;;;;;;31.55;27.89;97581.06;5043131;28;20470;-85
2021/08/31 08:01:33;;;;;;;0.60;0.50;;;;;;;31.39;28.37;97588.06;5042570;28;20033;-85
2021/08/31 08:03:59;;;;;;;0.55;0.55;;;;;;;31.32;28.40;97591.34;5030997;28;20052;-85
2021/08/31 08:06:26;;;;;;;0.60;0.50;;;;;;;31.59;27.99;97593.00;5052342;28;20033;-85
2021/08/31 08:08:52;;;;;;;0.40;0.40;;;;;;;31.79;27.83;97587.28;5033737;28;20104;-85
2021/08/31 08:11:18;;;;;;;9.18;0.70;;;;;;;31.36;27.90;97594.72;5049926;28;20025;-84
2021/08/31 08:13:44;;;;;;;0.50;0.40;;;;;;;30.73;29.30;97593.53;5046545;28;20048;-85
2021/08/31 08:16:10;;;;;;;0.57;0.50;;;;;;;30.88;29.13;97599.16;5042122;28;20037;-85
2021/08/31 08:18:37;;;;;;;0.40;0.40;;;;;;;30.88;28.91;97596.34;5047532;28;20040;-85
2021/08/31 08:21:03;;;;;;;0.43;0.43;;;;;;;31.25;28.59;97606.69;5051482;28;20104;-85
2021/08/31 08:23:29;;;;;;;0.50;0.50;;;;;;;31.24;28.44;97602.31;5047359;28;20041;-85
2021/08/31 08:25:55;;;;;;;0.82;0.50;;;;;;;31.59;27.90;97610.81;5045867;28;20071;-85
2021/08/31 08:28:24;;;;;;;0.63;0.50;;;;;;;31.21;28.58;97611.03;5039751;28;20531;-84
2021/08/31 08:30:52;;;;;;;0.40;0.40;;;;;;;31.54;28.11;97600.16;5042309;28;20480;-84
2021/08/31 08:33:20;;;;;;;0.80;0.60;;;;;;;32.12;27.23;97606.78;5045279;28;20037;-84
2021/08/31 08:35:47;;;;;;;0.65;0.55;;;;;;;32.39;26.63;97603.47;5046196;28;20025;-84
2021/08/31 08:38:14;;;;;;;0.60;0.40;;;;;;;32.60;26.64;97600.03;5045325;28;20388;-83
2021/08/31 08:40:41;;;;;;;0.40;0.40;;;;;;;32.49;26.50;97597.13;5040910;28;20424;-84
2021/08/31 08:43:07;;;;;;;0.50;0.50;;;;;;;32.75;26.14;97585.69;5025034;28;20033;-85
2021/08/31 08:45:34;;;;;;;0.90;0.60;;;;;;;32.97;26.12;97579.41;5040849;28;20029;-85
2021/08/31 08:48:00;;;;;;;0.80;0.50;;;;;;;32.78;26.19;97579.00;5026976;28;20111;-85
2021/08/31 08:50:28;;;;;;;0.68;0.30;;;;;;;32.70;26.19;97563.69;5047364;28;20143;-85
2021/08/31 08:52:54;;;;;;;0.40;0.40;;;;;;;32.46;26.62;97560.38;5041991;28;20033;-86
2021/08/31 08:55:25;;;;;;;0.68;0.40;;;;;;;32.09;27.23;97555.38;5046396;28;20182;-86
2021/08/31 08:57:51;;;;;;;0.30;0.30;;;;;;;31.73;27.80;97569.41;5047711;28;20485;-85
2021/08/31 09:00:19;;;;;;;0.40;0.40;;;;;;;31.55;28.29;97573.34;5041482;28;20112;-84
2021/08/31 09:02:47;;;;;;;1.27;0.40;;;;;;;31.46;28.14;97567.78;5031911;28;20489;-85
2021/08/31 09:05:30;;;;;;;0.60;0.57;;;;;;;30.76;29.57;97573.47;5045546;28;20048;-84
2021/08/31 09:08:07;;;;;;;0.50;0.50;;;;;;;31.20;28.78;97570.53;5032635;28;20045;-84
2021/08/31 09:10:34;;;;;;;1.20;0.55;;;;;;;30.80;29.70;97561.16;5047953;28;20404;-85
2021/08/31 09:13:01;;;;;;;1.55;0.50;;;;;;;30.94;29.46;97554.69;5046497;28;20117;-87
2021/08/31 09:15:28;;;;;;;0.60;0.40;;;;;;;30.36;30.13;97555.56;5043286;28;20029;-85
2021/08/31 09:18:07;;;;;;;0.35;0.35;;;;;;;29.93;30.86;97557.06;5039078;28;20029;-85
2021/08/31 09:20:36;;;;;;;0.57;0.28;;;;;;;30.01;30.75;97570.34;5043413;28;20068;-86
2021/08/31 09:23:04;;;;;;;0.30;0.30;;;;;;;30.14;30.64;97558.75;5033334;28;20035;-86
2021/08/31 09:25:41;;;;;;;0.65;0.47;;;;;;;30.01;31.13;97563.94;5044682;28;20033;-87
2021/08/31 09:28:32;;;;;;;0.40;0.40;;;;;;;30.57;30.32;97566.44;5049269;28;20036;-88
2021/08/31 09:31:08;;;;;;;0.88;0.70;;;;;;;31.25;29.36;97552.03;5049689;28;20035;-86
2021/08/31 09:33:40;;;;;;;2.25;0.55;;;;;;;31.46;28.83;97562.13;5051177;28;20032;-87
2021/08/31 09:36:22;;;;;;;0.70;0.50;;;;;;;31.34;29.28;97554.72;5052318;28;20037;-88
2021/08/31 09:38:48;;;;;;;0.50;0.50;;;;;;;31.61;29.23;97547.84;5052775;28;20032;-86
2021/08/31 09:41:34;;;;;;;1.50;0.45;;;;;;;31.63;29.11;97551.75;5052083;28;20029;-87
2021/08/31 09:44:11;;;;;;;0.35;0.30;;;;;;;31.72;29.78;97543.09;5047183;28;20428;-87
2021/08/31 09:46:47;;;;;;;0.75;0.38;;;;;;;31.48;30.05;97542.56;5051929;28;20029;-86
2021/08/31 09:49:21;;;;;;;0.40;0.40;;;;;;;30.99;30.73;97536.97;5055089;28;20102;-87
2021/08/31 09:52:09;;;;;;;0.30;0.30;;;;;;;30.17;31.87;97546.44;5050145;28;20090;-86
2021/08/31 09:54:41;;;;;;;0.40;0.40;;;;;;;29.43;33.61;97551.19;5054165;28;20051;-87
2021/08/31 09:57:28;;;;;;;0.45;0.30;;;;;;;30.12;32.41;97554.84;5034621;28;20061;-86
2021/08/31 09:59:56;;;;;;;0.85;0.30;;;;;;;29.94;32.69;97558.66;5053339;28;20497;-86
2021/08/31 10:02:23;;;;;;;0.32;0.32;;;;;;;29.29;33.66;97566.06;5054055;28;20029;-85
2021/08/31 10:04:51;;;;;;;0.52;0.30;;;;;;;29.70;33.34;97570.00;5052928;28;20033;-85
2021/08/31 10:07:19;;;;;;;0.40;0.40;;;;;;;29.43;33.56;97570.97;5053381;28;20041;-84
2021/08/31 10:09:45;;;;;;;0.43;0.38;;;;;;;30.02;33.01;97576.81;5052092;28;20496;-84
2021/08/31 10:12:14;;;;;;;0.50;0.40;;;;;;;30.58;31.93;97568.03;5050905;28;20075;-85
2021/08/31 10:14:43;;;;;;;0.80;0.50;;;;;;;29.98;32.77;97565.69;5054493;28;20040;-83
2021/08/31 10:17:12;;;;;;;0.57;0.57;;;;;;;30.32;32.63;97569.09;5033932;28;20044;-83
2021/08/31 10:19:42;;;;;;;0.85;0.40;;;;;;;30.50;32.38;97558.34;5044099;28;20120;-83
2021/08/31 10:22:13;;;;;;;1.00;0.50;;;;;;;31.22;31.16;97562.31;5054165;28;20047;-83
2021/08/31 10:24:43;;;;;;;0.45;0.45;;;;;;;30.86;31.98;97559.16;5054220;28;20064;-84
2021/08/31 10:27:36;;;;;;;1.50;0.47;;;;;;;30.27;32.74;97561.28;5050898;28;20513;-84
2021/08/31 10:30:20;;;;;;;0.75;0.50;;;;;;;30.39;32.69;97561.00;5052385;28;20044;-86
2021/08/31 10:33:00;;;;;;;0.73;0.40;;;;;;;29.90;32.97;97558.81;5040436;28;20044;-84
2021/08/31 10:35:35;;;;;;;0.38;0.38;;;;;;;29.90;33.58;97558.03;5048663;28;20056;-84
2021/08/31 10:38:07;;;;;;;1.15;0.60;;;;;;;30.00;32.86;97568.00;5052316;28;20438;-83
2021/08/31 10:40:45;;;;;;;0.60;0.60;;;;;;;29.59;33.54;97561.28;5050630;28;20026;-82
2021/08/31 10:43:52;;;;;;;0.40;0.40;;;;;;;30.02;32.73;97557.78;5053436;28;20508;-83
2021/08/31 10:46:18;;;;;;;0.50;0.40;;;;;;;30.15;32.62;97551.03;5037028;28;20028;-83
2021/08/31 10:48:59;;;;;;;0.60;0.60;;;;;;;29.31;33.69;97555.03;5054021;28;20029;-83
2021/08/31 10:51:26;;;;;;;1.05;0.47;;;;;;;29.46;33.75;97551.47;5049850;28;20484;-83
2021/08/31 10:53:52;;;;;;;1.75;0.70;;;;;;;29.75;33.01;97552.34;5049765;28;20037;-83
2021/08/31 10:56:24;;;;;;;0.73;0.60;;;;;;;30.08;32.50;97552.22;5043446;28;20053;-84
2021/08/31 10:58:53;;;;;;;0.45;0.43;;;;;;;29.81;33.33;97546.81;5044854;28;20512;-85
2021/08/31 11:01:27;;;;;;;1.00;0.90;;;;;;;29.53;33.54;97551.91;5049545;28;20392;-83
2021/08/31 11:03:56;;;;;;;0.70;0.70;;;;;;;29.67;33.57;97556.81;5042583;28;20401;-83
2021/08/31 11:06:27;;;;;;;0.80;0.80;;;;;;;29.30;34.29;97558.38;5037069;28;20033;-83
2021/08/31 11:09:04;;;;;;;0.93;0.80;;;;;;;28.73;35.45;97557.56;5043839;28;20041;-84
2021/08/31 11:11:30;;;;;;;0.95;0.88;;;;;;;29.08;34.99;97564.28;5039117;28;20048;-84
2021/08/31 11:13:57;;;;;;;0.80;0.80;;;;;;;30.15;33.08;97568.03;5050785;28;20115;-85
2021/08/31 11:16:29;;;;;;;1.08;0.98;;;;;;;29.42;34.29;97568.66;5042765;28;20136;-84
2021/08/31 11:18:55;;;;;;;1.02;1.02;;;;;;;30.14;33.19;97563.63;5045068;28;20033;-84
2021/08/31 11:21:22;;;;;;;0.70;0.70;;;;;;;30.21;33.39;97552.69;5048690;28;20033;-84
2021/08/31 11:23:49;;;;;;;1.58;1.27;;;;;;;30.52;32.46;97563.56;5039231;28;20029;-84
2021/08/31 11:26:24;;;;;;;0.73;0.73;;;;;;;30.40;32.91;97568.25;5048305;28;20033;-85
2021/08/31 11:28:51;;;;;;;0.93;0.88;;;;;;;30.57;32.77;97571.38;5048360;28;20417;-85
2021/08/31 11:31:24;;;;;;;0.77;0.77;;;;;;;30.08;33.06;97569.97;5050242;28;20037;-85
2021/08/31 11:33:55;;;;;;;0.73;0.73;;;;;;;29.74;33.81;97564.13;5049120;28;20032;-85
2021/08/31 11:36:28;;;;;;;0.88;0.73;;;;;;;30.66;32.36;97562.75;5046039;28;20037;-85
2021/08/31 11:39:02;;;;;;;0.98;0.80;;;;;;;30.16;33.09;97561.88;5054914;28;20028;-85